Terminal Aerodrome Forecast
Issued by NWS Mt. Holly, NJ

Home | Current Version | Previous Version | Text Only | Print | Product List | Glossary On
Versions: 1 2 3 4 5 6 7 8 9 10 11 12 13 14 15 16 17 18 19 20 21 22 23
000
FTUS41 KPHI 281459 AAA
TAFPHL
TAF AMD
KPHL 281459Z 2815/2918 23008KT P6SM SCT035
     FM282300 20008KT P6SM SCT040
     FM290200 19004KT P6SM FEW035 SCT250=

USA.gov is the U.S. government's official web portal to all federal, state and local government web resources and services.